sensor_id;sensor_type;location;lat;lon;timestamp;temperature;humidity
16823;DHT22;8528;49.976;11.858;2024-03-06T00:01:57;6.50;99.90
16823;DHT22;8528;49.976;11.858;2024-03-06T00:04:24;6.40;99.90
16823;DHT22;8528;49.976;11.858;2024-03-06T00:06:51;6.40;99.90
16823;DHT22;8528;49.976;11.858;2024-03-06T00:09:19;6.40;99.90
16823;DHT22;8528;49.976;11.858;2024-03-06T00:11:46;6.30;99.90
16823;DHT22;8528;49.976;11.858;2024-03-06T00:14:13;6.30;99.90
16823;DHT22;8528;49.976;11.858;2024-03-06T00:16:40;6.20;99.90
16823;DHT22;8528;49.976;11.858;2024-03-06T00:19:07;6.10;99.90
16823;DHT22;8528;49.976;11.858;2024-03-06T00:21:35;6.00;99.90
16823;DHT22;8528;49.976;11.858;2024-03-06T00:24:03;5.90;99.90
16823;DHT22;8528;49.976;11.858;2024-03-06T00:26:33;5.80;99.90
16823;DHT22;8528;49.976;11.858;2024-03-06T00:28:59;5.60;99.90
16823;DHT22;8528;49.976;11.858;2024-03-06T00:31:26;5.60;99.90
16823;DHT22;8528;49.976;11.858;2024-03-06T00:33:53;5.50;99.90
16823;DHT22;8528;49.976;11.858;2024-03-06T00:36:20;5.40;99.90
16823;DHT22;8528;49.976;11.858;2024-03-06T00:38:47;5.40;99.90
16823;DHT22;8528;49.976;11.858;2024-03-06T00:41:14;5.40;99.90
16823;DHT22;8528;49.976;11.858;2024-03-06T00:43:41;5.50;99.90
16823;DHT22;8528;49.976;11.858;2024-03-06T00:46:09;5.50;99.90
16823;DHT22;8528;49.976;11.858;2024-03-06T00:48:35;5.60;99.90
16823;DHT22;8528;49.976;11.858;2024-03-06T00:51:06;5.70;99.90
16823;DHT22;8528;49.976;11.858;2024-03-06T00:53:37;5.70;99.90
16823;DHT22;8528;49.976;11.858;2024-03-06T00:56:04;5.70;99.90
16823;DHT22;8528;49.976;11.858;2024-03-06T00:58:31;5.80;99.90
16823;DHT22;8528;49.976;11.858;2024-03-06T01:00:58;5.80;99.90
16823;DHT22;8528;49.976;11.858;2024-03-06T01:03:25;5.80;99.90
16823;DHT22;8528;49.976;11.858;2024-03-06T01:05:52;5.90;99.90
16823;DHT22;8528;49.976;11.858;2024-03-06T01:08:19;5.90;99.90
16823;DHT22;8528;49.976;11.858;2024-03-06T01:10:46;5.90;99.90
16823;DHT22;8528;49.976;11.858;2024-03-06T01:13:14;5.90;99.90
16823;DHT22;8528;49.976;11.858;2024-03-06T01:15:40;6.00;99.90
16823;DHT22;8528;49.976;11.858;2024-03-06T01:18:07;6.00;99.90
16823;DHT22;8528;49.976;11.858;2024-03-06T01:20:35;6.00;99.90
16823;DHT22;8528;49.976;11.858;2024-03-06T01:23:03;6.00;99.90
16823;DHT22;8528;49.976;11.858;2024-03-06T01:25:30;6.00;99.90
16823;DHT22;8528;49.976;11.858;2024-03-06T01:27:57;6.00;99.90
16823;DHT22;8528;49.976;11.858;2024-03-06T01:30:24;6.00;99.90
16823;DHT22;8528;49.976;11.858;2024-03-06T01:32:51;6.00;99.90
16823;DHT22;8528;49.976;11.858;2024-03-06T01:35:18;6.10;99.90
16823;DHT22;8528;49.976;11.858;2024-03-06T01:37:45;6.10;99.90
16823;DHT22;8528;49.976;11.858;2024-03-06T01:40:12;6.10;99.90
16823;DHT22;8528;49.976;11.858;2024-03-06T01:42:39;6.10;99.90
16823;DHT22;8528;49.976;11.858;2024-03-06T01:45:07;6.20;99.90
16823;DHT22;8528;49.976;11.858;2024-03-06T01:47:34;6.20;99.90
16823;DHT22;8528;49.976;11.858;2024-03-06T01:50:01;6.30;99.90
16823;DHT22;8528;49.976;11.858;2024-03-06T01:52:29;6.30;99.90
16823;DHT22;8528;49.976;11.858;2024-03-06T01:54:56;6.30;99.90
16823;DHT22;8528;49.976;11.858;2024-03-06T01:57:23;6.20;99.90
16823;DHT22;8528;49.976;11.858;2024-03-06T01:59:50;6.20;99.90
16823;DHT22;8528;49.976;11.858;2024-03-06T02:02:17;6.30;99.90
16823;DHT22;8528;49.976;11.858;2024-03-06T02:04:44;6.30;99.90
16823;DHT22;8528;49.976;11.858;2024-03-06T02:07:13;6.20;99.90
16823;DHT22;8528;49.976;11.858;2024-03-06T02:09:41;6.20;99.90
16823;DHT22;8528;49.976;11.858;2024-03-06T02:12:09;6.30;99.90
16823;DHT22;8528;49.976;11.858;2024-03-06T02:14:36;6.30;99.90
16823;DHT22;8528;49.976;11.858;2024-03-06T02:17:03;6.30;99.90
16823;DHT22;8528;49.976;11.858;2024-03-06T02:19:41;6.30;99.90
16823;DHT22;8528;49.976;11.858;2024-03-06T02:22:08;6.30;99.90
16823;DHT22;8528;49.976;11.858;2024-03-06T02:24:36;6.30;99.90
16823;DHT22;8528;49.976;11.858;2024-03-06T02:27:03;6.40;99.90
16823;DHT22;8528;49.976;11.858;2024-03-06T02:29:32;6.30;99.90
16823;DHT22;8528;49.976;11.858;2024-03-06T02:31:59;6.30;99.90
16823;DHT22;8528;49.976;11.858;2024-03-06T02:34:29;6.40;99.90
16823;DHT22;8528;49.976;11.858;2024-03-06T02:36:59;6.40;99.90
16823;DHT22;8528;49.976;11.858;2024-03-06T02:39:26;6.30;99.90
16823;DHT22;8528;49.976;11.858;2024-03-06T02:41:53;6.30;99.90
16823;DHT22;8528;49.976;11.858;2024-03-06T02:44:20;6.40;99.90
16823;DHT22;8528;49.976;11.858;2024-03-06T02:46:50;6.30;99.90
16823;DHT22;8528;49.976;11.858;2024-03-06T02:49:17;6.30;99.90
16823;DHT22;8528;49.976;11.858;2024-03-06T02:51:45;6.30;99.90
16823;DHT22;8528;49.976;11.858;2024-03-06T02:54:12;6.40;99.90
16823;DHT22;8528;49.976;11.858;2024-03-06T02:56:39;6.40;99.90
16823;DHT22;8528;49.976;11.858;2024-03-06T02:59:06;6.40;99.90
16823;DHT22;8528;49.976;11.858;2024-03-06T03:01:33;6.40;99.90
16823;DHT22;8528;49.976;11.858;2024-03-06T03:04:01;6.40;99.90
16823;DHT22;8528;49.976;11.858;2024-03-06T03:06:27;6.30;99.90
16823;DHT22;8528;49.976;11.858;2024-03-06T03:08:55;6.40;99.90
16823;DHT22;8528;49.976;11.858;2024-03-06T03:11:22;6.30;99.90
16823;DHT22;8528;49.976;11.858;2024-03-06T03:13:49;6.30;99.90
16823;DHT22;8528;49.976;11.858;2024-03-06T03:16:17;6.30;99.90
16823;DHT22;8528;49.976;11.858;2024-03-06T03:18:45;6.30;99.90
16823;DHT22;8528;49.976;11.858;2024-03-06T03:21:12;6.10;99.90
16823;DHT22;8528;49.976;11.858;2024-03-06T03:23:39;6.10;99.90
16823;DHT22;8528;49.976;11.858;2024-03-06T03:26:07;6.00;99.90
16823;DHT22;8528;49.976;11.858;2024-03-06T03:28:40;6.00;99.90
16823;DHT22;8528;49.976;11.858;2024-03-06T03:31:08;6.00;99.90
16823;DHT22;8528;49.976;11.858;2024-03-06T03:33:39;6.00;99.90
16823;DHT22;8528;49.976;11.858;2024-03-06T03:36:07;6.00;99.90
16823;DHT22;8528;49.976;11.858;2024-03-06T03:38:38;6.00;99.90
16823;DHT22;8528;49.976;11.858;2024-03-06T03:41:12;6.00;99.90
16823;DHT22;8528;49.976;11.858;2024-03-06T03:43:41;6.10;99.90
16823;DHT22;8528;49.976;11.858;2024-03-06T03:46:08;6.10;99.90
16823;DHT22;8528;49.976;11.858;2024-03-06T03:48:36;6.10;99.90
16823;DHT22;8528;49.976;11.858;2024-03-06T03:51:05;6.10;99.90
16823;DHT22;8528;49.976;11.858;2024-03-06T03:53:33;6.00;99.90
16823;DHT22;8528;49.976;11.858;2024-03-06T03:56:01;6.00;99.90
16823;DHT22;8528;49.976;11.858;2024-03-06T03:58:29;6.00;99.90
16823;DHT22;8528;49.976;11.858;2024-03-06T04:00:57;6.00;99.90
16823;DHT22;8528;49.976;11.858;2024-03-06T04:03:23;5.90;99.90
16823;DHT22;8528;49.976;11.858;2024-03-06T04:05:51;5.90;99.90
16823;DHT22;8528;49.976;11.858;2024-03-06T04:08:18;5.90;99.90
16823;DHT22;8528;49.976;11.858;2024-03-06T04:10:45;5.90;99.90
16823;DHT22;8528;49.976;11.858;2024-03-06T04:13:14;5.80;99.90
16823;DHT22;8528;49.976;11.858;2024-03-06T04:15:41;5.90;99.90
16823;DHT22;8528;49.976;11.858;2024-03-06T04:18:08;5.80;99.90
16823;DHT22;8528;49.976;11.858;2024-03-06T04:20:35;5.90;99.90
16823;DHT22;8528;49.976;11.858;2024-03-06T04:23:02;5.90;99.90
16823;DHT22;8528;49.976;11.858;2024-03-06T04:25:31;5.90;99.90
16823;DHT22;8528;49.976;11.858;2024-03-06T04:27:58;5.90;99.90
16823;DHT22;8528;49.976;11.858;2024-03-06T04:30:25;5.80;99.90
16823;DHT22;8528;49.976;11.858;2024-03-06T04:32:52;5.80;99.90
16823;DHT22;8528;49.976;11.858;2024-03-06T04:35:19;5.80;99.90
16823;DHT22;8528;49.976;11.858;2024-03-06T04:37:45;5.80;99.90
16823;DHT22;8528;49.976;11.858;2024-03-06T04:40:13;5.90;99.90
16823;DHT22;8528;49.976;11.858;2024-03-06T04:42:47;5.90;99.90
16823;DHT22;8528;49.976;11.858;2024-03-06T04:45:16;5.90;99.90
16823;DHT22;8528;49.976;11.858;2024-03-06T04:47:43;5.90;99.90
16823;DHT22;8528;49.976;11.858;2024-03-06T04:50:12;5.90;99.90
16823;DHT22;8528;49.976;11.858;2024-03-06T04:52:39;5.90;99.90
16823;DHT22;8528;49.976;11.858;2024-03-06T04:55:08;5.90;99.90
16823;DHT22;8528;49.976;11.858;2024-03-06T04:57:38;5.90;99.90
16823;DHT22;8528;49.976;11.858;2024-03-06T05:00:07;5.90;99.90
16823;DHT22;8528;49.976;11.858;2024-03-06T05:02:35;5.90;99.90
16823;DHT22;8528;49.976;11.858;2024-03-06T05:05:20;5.90;99.90
16823;DHT22;8528;49.976;11.858;2024-03-06T05:08:05;5.80;99.90
16823;DHT22;8528;49.976;11.858;2024-03-06T05:10:50;5.70;99.90
16823;DHT22;8528;49.976;11.858;2024-03-06T05:13:35;5.70;99.90
16823;DHT22;8528;49.976;11.858;2024-03-06T05:16:19;5.70;99.90
16823;DHT22;8528;49.976;11.858;2024-03-06T05:19:04;5.70;99.90
16823;DHT22;8528;49.976;11.858;2024-03-06T05:21:48;5.70;99.90
16823;DHT22;8528;49.976;11.858;2024-03-06T05:24:33;5.60;99.90
16823;DHT22;8528;49.976;11.858;2024-03-06T05:27:17;5.70;99.90
16823;DHT22;8528;49.976;11.858;2024-03-06T05:30:02;5.70;99.90
16823;DHT22;8528;49.976;11.858;2024-03-06T05:32:49;5.70;99.90
16823;DHT22;8528;49.976;11.858;2024-03-06T05:35:33;5.70;99.90
16823;DHT22;8528;49.976;11.858;2024-03-06T05:38:18;5.70;99.90
16823;DHT22;8528;49.976;11.858;2024-03-06T05:41:03;5.70;99.90
16823;DHT22;8528;49.976;11.858;2024-03-06T05:43:47;5.80;99.90
16823;DHT22;8528;49.976;11.858;2024-03-06T05:46:33;5.80;99.90
16823;DHT22;8528;49.976;11.858;2024-03-06T05:49:17;5.90;99.90
16823;DHT22;8528;49.976;11.858;2024-03-06T05:52:02;5.90;99.90
16823;DHT22;8528;49.976;11.858;2024-03-06T05:54:46;5.80;99.90
16823;DHT22;8528;49.976;11.858;2024-03-06T05:57:31;5.80;99.90
16823;DHT22;8528;49.976;11.858;2024-03-06T06:00:16;5.80;99.90
16823;DHT22;8528;49.976;11.858;2024-03-06T06:02:45;5.70;99.90
16823;DHT22;8528;49.976;11.858;2024-03-06T06:05:13;5.60;99.90
16823;DHT22;8528;49.976;11.858;2024-03-06T06:07:50;5.60;99.90
16823;DHT22;8528;49.976;11.858;2024-03-06T06:10:17;5.60;99.90
16823;DHT22;8528;49.976;11.858;2024-03-06T06:12:48;5.60;99.90
16823;DHT22;8528;49.976;11.858;2024-03-06T06:15:15;5.60;99.90
16823;DHT22;8528;49.976;11.858;2024-03-06T06:17:43;5.60;99.90
16823;DHT22;8528;49.976;11.858;2024-03-06T06:20:12;5.60;99.90
16823;DHT22;8528;49.976;11.858;2024-03-06T06:22:43;5.60;99.90
16823;DHT22;8528;49.976;11.858;2024-03-06T06:25:11;5.60;99.90
16823;DHT22;8528;49.976;11.858;2024-03-06T06:27:38;5.60;99.90
16823;DHT22;8528;49.976;11.858;2024-03-06T06:30:06;5.60;99.90
16823;DHT22;8528;49.976;11.858;2024-03-06T06:32:38;5.60;99.90
16823;DHT22;8528;49.976;11.858;2024-03-06T06:35:09;5.70;99.90
16823;DHT22;8528;49.976;11.858;2024-03-06T06:37:37;5.70;99.90
16823;DHT22;8528;49.976;11.858;2024-03-06T06:40:07;5.70;99.90
16823;DHT22;8528;49.976;11.858;2024-03-06T06:42:35;5.70;99.90
16823;DHT22;8528;49.976;11.858;2024-03-06T06:45:03;5.70;99.90
16823;DHT22;8528;49.976;11.858;2024-03-06T06:47:32;5.80;99.90
16823;DHT22;8528;49.976;11.858;2024-03-06T06:50:00;5.80;99.90
16823;DHT22;8528;49.976;11.858;2024-03-06T06:52:27;5.90;99.90
16823;DHT22;8528;49.976;11.858;2024-03-06T06:54:55;6.00;99.90
16823;DHT22;8528;49.976;11.858;2024-03-06T06:57:23;6.00;99.90
16823;DHT22;8528;49.976;11.858;2024-03-06T06:59:49;6.10;99.90
16823;DHT22;8528;49.976;11.858;2024-03-06T07:02:17;6.10;99.90
16823;DHT22;8528;49.976;11.858;2024-03-06T07:04:44;6.10;99.90
16823;DHT22;8528;49.976;11.858;2024-03-06T07:07:11;6.10;99.90
16823;DHT22;8528;49.976;11.858;2024-03-06T07:09:38;6.00;99.90
16823;DHT22;8528;49.976;11.858;2024-03-06T07:12:05;6.00;99.90
16823;DHT22;8528;49.976;11.858;2024-03-06T07:14:32;6.00;99.90
16823;DHT22;8528;49.976;11.858;2024-03-06T07:17:00;5.90;99.90
16823;DHT22;8528;49.976;11.858;2024-03-06T07:19:27;5.90;99.90
16823;DHT22;8528;49.976;11.858;2024-03-06T07:21:54;5.90;99.90
16823;DHT22;8528;49.976;11.858;2024-03-06T07:24:21;5.90;99.90
16823;DHT22;8528;49.976;11.858;2024-03-06T07:26:47;5.90;99.90
16823;DHT22;8528;49.976;11.858;2024-03-06T07:29:14;5.90;99.90
16823;DHT22;8528;49.976;11.858;2024-03-06T07:31:42;5.90;99.90
16823;DHT22;8528;49.976;11.858;2024-03-06T07:34:10;5.90;99.90
16823;DHT22;8528;49.976;11.858;2024-03-06T07:36:37;6.00;99.90
16823;DHT22;8528;49.976;11.858;2024-03-06T07:39:04;6.10;99.90
16823;DHT22;8528;49.976;11.858;2024-03-06T07:41:31;6.10;99.90
16823;DHT22;8528;49.976;11.858;2024-03-06T07:44:00;6.30;99.90
16823;DHT22;8528;49.976;11.858;2024-03-06T07:46:27;6.40;99.90
16823;DHT22;8528;49.976;11.858;2024-03-06T07:48:54;6.60;99.90
16823;DHT22;8528;49.976;11.858;2024-03-06T07:51:22;6.70;99.90
16823;DHT22;8528;49.976;11.858;2024-03-06T07:53:49;6.80;99.90
16823;DHT22;8528;49.976;11.858;2024-03-06T07:56:17;6.90;99.90
16823;DHT22;8528;49.976;11.858;2024-03-06T07:58:45;7.00;99.90
16823;DHT22;8528;49.976;11.858;2024-03-06T08:01:12;7.10;99.90
16823;DHT22;8528;49.976;11.858;2024-03-06T08:03:39;7.20;99.90
16823;DHT22;8528;49.976;11.858;2024-03-06T08:06:07;7.20;99.90
16823;DHT22;8528;49.976;11.858;2024-03-06T08:08:41;7.20;99.90
16823;DHT22;8528;49.976;11.858;2024-03-06T08:11:08;7.20;99.90
16823;DHT22;8528;49.976;11.858;2024-03-06T08:13:38;7.10;99.90
16823;DHT22;8528;49.976;11.858;2024-03-06T08:16:06;7.10;99.90
16823;DHT22;8528;49.976;11.858;2024-03-06T08:18:34;7.00;99.90
16823;DHT22;8528;49.976;11.858;2024-03-06T08:21:01;6.90;99.90
16823;DHT22;8528;49.976;11.858;2024-03-06T08:23:30;6.90;99.90
16823;DHT22;8528;49.976;11.858;2024-03-06T08:25:57;6.90;99.90
16823;DHT22;8528;49.976;11.858;2024-03-06T08:28:24;7.10;99.90
16823;DHT22;8528;49.976;11.858;2024-03-06T08:30:50;7.30;99.90
16823;DHT22;8528;49.976;11.858;2024-03-06T08:33:18;7.50;99.90
16823;DHT22;8528;49.976;11.858;2024-03-06T08:35:48;7.70;99.90
16823;DHT22;8528;49.976;11.858;2024-03-06T08:38:15;7.90;99.90
16823;DHT22;8528;49.976;11.858;2024-03-06T08:40:44;8.20;99.90
16823;DHT22;8528;49.976;11.858;2024-03-06T08:43:13;8.60;99.90
16823;DHT22;8528;49.976;11.858;2024-03-06T08:45:42;8.80;99.90
16823;DHT22;8528;49.976;11.858;2024-03-06T08:48:09;8.90;99.90
16823;DHT22;8528;49.976;11.858;2024-03-06T08:50:38;9.20;99.90
16823;DHT22;8528;49.976;11.858;2024-03-06T08:53:05;9.60;99.90
16823;DHT22;8528;49.976;11.858;2024-03-06T08:55:32;9.70;99.90
16823;DHT22;8528;49.976;11.858;2024-03-06T08:57:59;9.50;99.90
16823;DHT22;8528;49.976;11.858;2024-03-06T09:00:28;9.70;99.90
16823;DHT22;8528;49.976;11.858;2024-03-06T09:02:55;9.30;99.90
16823;DHT22;8528;49.976;11.858;2024-03-06T09:05:22;9.10;99.90
16823;DHT22;8528;49.976;11.858;2024-03-06T09:07:49;9.10;99.90
16823;DHT22;8528;49.976;11.858;2024-03-06T09:10:16;9.70;99.90
16823;DHT22;8528;49.976;11.858;2024-03-06T09:12:45;10.00;99.90
16823;DHT22;8528;49.976;11.858;2024-03-06T09:15:14;10.10;99.90
16823;DHT22;8528;49.976;11.858;2024-03-06T09:17:41;10.00;99.90
16823;DHT22;8528;49.976;11.858;2024-03-06T09:20:09;10.20;99.90
16823;DHT22;8528;49.976;11.858;2024-03-06T09:22:43;10.10;99.90
16823;DHT22;8528;49.976;11.858;2024-03-06T09:25:11;9.90;99.90
16823;DHT22;8528;49.976;11.858;2024-03-06T09:27:41;9.70;99.90
16823;DHT22;8528;49.976;11.858;2024-03-06T09:30:09;9.70;99.90
16823;DHT22;8528;49.976;11.858;2024-03-06T09:32:37;9.60;99.90
16823;DHT22;8528;49.976;11.858;2024-03-06T09:35:06;9.50;99.90
16823;DHT22;8528;49.976;11.858;2024-03-06T09:37:33;9.50;99.90
16823;DHT22;8528;49.976;11.858;2024-03-06T09:40:00;9.50;99.90
16823;DHT22;8528;49.976;11.858;2024-03-06T09:42:27;9.30;99.90
16823;DHT22;8528;49.976;11.858;2024-03-06T09:44:54;9.20;99.90
16823;DHT22;8528;49.976;11.858;2024-03-06T09:47:22;9.00;99.90
16823;DHT22;8528;49.976;11.858;2024-03-06T09:49:52;9.00;99.90
16823;DHT22;8528;49.976;11.858;2024-03-06T09:52:24;8.90;99.90
16823;DHT22;8528;49.976;11.858;2024-03-06T09:54:54;9.00;99.90
16823;DHT22;8528;49.976;11.858;2024-03-06T09:57:22;9.20;99.90
16823;DHT22;8528;49.976;11.858;2024-03-06T09:59:49;9.30;99.90
16823;DHT22;8528;49.976;11.858;2024-03-06T10:04:53;9.20;99.90
16823;DHT22;8528;49.976;11.858;2024-03-06T10:07:20;9.10;99.90
16823;DHT22;8528;49.976;11.858;2024-03-06T10:09:47;9.70;99.90
16823;DHT22;8528;49.976;11.858;2024-03-06T10:12:17;9.90;99.90
16823;DHT22;8528;49.976;11.858;2024-03-06T10:14:49;9.80;99.90
16823;DHT22;8528;49.976;11.858;2024-03-06T10:17:21;9.50;99.90
16823;DHT22;8528;49.976;11.858;2024-03-06T10:19:55;9.70;99.90
16823;DHT22;8528;49.976;11.858;2024-03-06T10:22:23;9.90;99.90
16823;DHT22;8528;49.976;11.858;2024-03-06T10:24:55;10.10;99.90
16823;DHT22;8528;49.976;11.858;2024-03-06T10:27:24;10.30;99.90
16823;DHT22;8528;49.976;11.858;2024-03-06T10:30:03;10.30;99.90
16823;DHT22;8528;49.976;11.858;2024-03-06T10:32:32;10.30;99.90
16823;DHT22;8528;49.976;11.858;2024-03-06T10:34:59;10.30;99.90
16823;DHT22;8528;49.976;11.858;2024-03-06T10:37:28;10.30;99.90
16823;DHT22;8528;49.976;11.858;2024-03-06T10:39:58;10.10;99.90
16823;DHT22;8528;49.976;11.858;2024-03-06T10:42:28;10.00;99.90
16823;DHT22;8528;49.976;11.858;2024-03-06T10:44:59;10.00;99.90
16823;DHT22;8528;49.976;11.858;2024-03-06T10:47:28;10.40;99.90
16823;DHT22;8528;49.976;11.858;2024-03-06T10:49:59;10.70;99.90
16823;DHT22;8528;49.976;11.858;2024-03-06T10:52:27;10.80;99.90
16823;DHT22;8528;49.976;11.858;2024-03-06T10:54:55;10.80;99.90
16823;DHT22;8528;49.976;11.858;2024-03-06T10:57:25;10.60;99.90
16823;DHT22;8528;49.976;11.858;2024-03-06T10:59:54;10.50;99.90
16823;DHT22;8528;49.976;11.858;2024-03-06T11:02:23;10.20;99.90
16823;DHT22;8528;49.976;11.858;2024-03-06T11:04:51;9.60;99.90
16823;DHT22;8528;49.976;11.858;2024-03-06T11:07:19;9.20;99.90
16823;DHT22;8528;49.976;11.858;2024-03-06T11:09:46;9.10;99.90
16823;DHT22;8528;49.976;11.858;2024-03-06T11:12:36;9.20;99.90
16823;DHT22;8528;49.976;11.858;2024-03-06T11:15:15;9.50;99.90
16823;DHT22;8528;49.976;11.858;2024-03-06T11:17:43;9.70;99.90
16823;DHT22;8528;49.976;11.858;2024-03-06T11:20:18;9.80;99.90
16823;DHT22;8528;49.976;11.858;2024-03-06T11:28:17;10.30;99.90
16823;DHT22;8528;49.976;11.858;2024-03-06T11:41:26;11.50;99.90
16823;DHT22;8528;49.976;11.858;2024-03-06T11:43:55;11.70;99.90
16823;DHT22;8528;49.976;11.858;2024-03-06T11:46:40;11.80;99.90
16823;DHT22;8528;49.976;11.858;2024-03-06T11:49:15;11.70;99.90
16823;DHT22;8528;49.976;11.858;2024-03-06T11:51:45;11.60;99.90
16823;DHT22;8528;49.976;11.858;2024-03-06T11:54:13;11.40;99.90
16823;DHT22;8528;49.976;11.858;2024-03-06T11:56:45;11.40;99.90
16823;DHT22;8528;49.976;11.858;2024-03-06T11:59:14;11.00;99.90
16823;DHT22;8528;49.976;11.858;2024-03-06T12:01:41;10.70;99.90
16823;DHT22;8528;49.976;11.858;2024-03-06T12:04:09;10.70;99.90
16823;DHT22;8528;49.976;11.858;2024-03-06T12:06:37;10.70;99.90
16823;DHT22;8528;49.976;11.858;2024-03-06T12:09:04;10.60;99.90
16823;DHT22;8528;49.976;11.858;2024-03-06T12:11:31;10.60;99.90
16823;DHT22;8528;49.976;11.858;2024-03-06T12:13:58;10.80;99.90
16823;DHT22;8528;49.976;11.858;2024-03-06T12:16:25;10.60;99.90
16823;DHT22;8528;49.976;11.858;2024-03-06T12:18:59;10.20;99.90
16823;DHT22;8528;49.976;11.858;2024-03-06T12:21:31;10.50;99.90
16823;DHT22;8528;49.976;11.858;2024-03-06T12:24:05;12.00;99.90
16823;DHT22;8528;49.976;11.858;2024-03-06T12:26:32;12.90;99.90
16823;DHT22;8528;49.976;11.858;2024-03-06T12:29:11;13.40;99.90
16823;DHT22;8528;49.976;11.858;2024-03-06T12:31:39;13.30;99.90
16823;DHT22;8528;49.976;11.858;2024-03-06T12:34:14;13.00;99.90
16823;DHT22;8528;49.976;11.858;2024-03-06T12:36:44;12.40;99.90
16823;DHT22;8528;49.976;11.858;2024-03-06T12:39:15;11.90;99.90
16823;DHT22;8528;49.976;11.858;2024-03-06T12:41:44;11.30;99.90
16823;DHT22;8528;49.976;11.858;2024-03-06T12:44:12;11.10;99.90
16823;DHT22;8528;49.976;11.858;2024-03-06T12:46:39;10.70;99.90
16823;DHT22;8528;49.976;11.858;2024-03-06T12:49:06;10.20;99.90
16823;DHT22;8528;49.976;11.858;2024-03-06T12:51:33;10.00;99.90
16823;DHT22;8528;49.976;11.858;2024-03-06T12:54:01;10.10;99.90
16823;DHT22;8528;49.976;11.858;2024-03-06T12:56:27;10.20;99.90
16823;DHT22;8528;49.976;11.858;2024-03-06T12:58:55;10.30;99.90
16823;DHT22;8528;49.976;11.858;2024-03-06T13:01:22;10.20;99.90
16823;DHT22;8528;49.976;11.858;2024-03-06T13:03:49;10.10;99.90
16823;DHT22;8528;49.976;11.858;2024-03-06T13:06:16;10.10;99.90
16823;DHT22;8528;49.976;11.858;2024-03-06T13:08:43;10.10;99.90
16823;DHT22;8528;49.976;11.858;2024-03-06T13:11:11;9.90;99.90
16823;DHT22;8528;49.976;11.858;2024-03-06T13:13:38;9.50;99.90
16823;DHT22;8528;49.976;11.858;2024-03-06T13:16:05;9.70;99.90
16823;DHT22;8528;49.976;11.858;2024-03-06T13:18:35;9.80;99.90
16823;DHT22;8528;49.976;11.858;2024-03-06T13:21:03;10.00;99.90
16823;DHT22;8528;49.976;11.858;2024-03-06T13:23:29;10.10;99.90
16823;DHT22;8528;49.976;11.858;2024-03-06T13:25:58;10.00;99.90
16823;DHT22;8528;49.976;11.858;2024-03-06T13:28:25;10.00;99.90
16823;DHT22;8528;49.976;11.858;2024-03-06T13:30:52;9.90;99.90
16823;DHT22;8528;49.976;11.858;2024-03-06T13:33:23;10.00;99.90
16823;DHT22;8528;49.976;11.858;2024-03-06T13:35:53;10.10;99.90
16823;DHT22;8528;49.976;11.858;2024-03-06T13:38:22;10.20;99.90
16823;DHT22;8528;49.976;11.858;2024-03-06T13:40:48;10.50;99.90
16823;DHT22;8528;49.976;11.858;2024-03-06T13:43:15;10.70;99.90
16823;DHT22;8528;49.976;11.858;2024-03-06T13:45:50;10.80;99.90
16823;DHT22;8528;49.976;11.858;2024-03-06T13:48:17;11.10;99.90
16823;DHT22;8528;49.976;11.858;2024-03-06T13:50:44;11.20;99.90
16823;DHT22;8528;49.976;11.858;2024-03-06T13:53:12;11.10;99.90
16823;DHT22;8528;49.976;11.858;2024-03-06T13:55:39;11.00;99.90
16823;DHT22;8528;49.976;11.858;2024-03-06T13:58:07;11.30;99.90
16823;DHT22;8528;49.976;11.858;2024-03-06T14:00:34;12.00;99.90
16823;DHT22;8528;49.976;11.858;2024-03-06T14:03:04;13.50;99.90
16823;DHT22;8528;49.976;11.858;2024-03-06T14:05:31;15.00;95.50
16823;DHT22;8528;49.976;11.858;2024-03-06T14:07:59;14.50;91.70
16823;DHT22;8528;49.976;11.858;2024-03-06T14:10:25;14.50;92.40
16823;DHT22;8528;49.976;11.858;2024-03-06T14:12:53;13.80;93.10
16823;DHT22;8528;49.976;11.858;2024-03-06T14:15:22;13.00;95.30
16823;DHT22;8528;49.976;11.858;2024-03-06T14:17:50;12.70;97.60
16823;DHT22;8528;49.976;11.858;2024-03-06T14:20:17;12.40;98.60
16823;DHT22;8528;49.976;11.858;2024-03-06T14:22:45;12.10;99.90
16823;DHT22;8528;49.976;11.858;2024-03-06T14:25:11;12.40;99.90
16823;DHT22;8528;49.976;11.858;2024-03-06T14:27:38;12.60;99.40
16823;DHT22;8528;49.976;11.858;2024-03-06T14:30:07;12.50;99.40
16823;DHT22;8528;49.976;11.858;2024-03-06T14:32:34;12.10;99.20
16823;DHT22;8528;49.976;11.858;2024-03-06T14:35:01;11.90;99.90
16823;DHT22;8528;49.976;11.858;2024-03-06T14:37:28;11.70;99.90
16823;DHT22;8528;49.976;11.858;2024-03-06T14:39:55;11.70;99.90
16823;DHT22;8528;49.976;11.858;2024-03-06T14:42:22;11.70;99.00
16823;DHT22;8528;49.976;11.858;2024-03-06T14:44:50;11.70;99.90
16823;DHT22;8528;49.976;11.858;2024-03-06T14:47:17;11.80;99.90
16823;DHT22;8528;49.976;11.858;2024-03-06T14:49:44;11.50;98.40
16823;DHT22;8528;49.976;11.858;2024-03-06T14:52:12;11.20;99.90
16823;DHT22;8528;49.976;11.858;2024-03-06T14:54:40;11.00;99.70
16823;DHT22;8528;49.976;11.858;2024-03-06T14:57:10;10.90;99.90
16823;DHT22;8528;49.976;11.858;2024-03-06T14:59:38;10.80;99.90
16823;DHT22;8528;49.976;11.858;2024-03-06T15:02:05;10.70;99.90
16823;DHT22;8528;49.976;11.858;2024-03-06T15:04:33;10.50;99.90
16823;DHT22;8528;49.976;11.858;2024-03-06T15:07:00;10.30;99.90
16823;DHT22;8528;49.976;11.858;2024-03-06T15:09:27;10.20;99.90
16823;DHT22;8528;49.976;11.858;2024-03-06T15:11:55;10.10;99.90
16823;DHT22;8528;49.976;11.858;2024-03-06T15:14:23;9.90;99.90
16823;DHT22;8528;49.976;11.858;2024-03-06T15:16:51;9.80;99.90
16823;DHT22;8528;49.976;11.858;2024-03-06T15:19:18;9.60;99.90
16823;DHT22;8528;49.976;11.858;2024-03-06T15:21:45;9.70;99.90
16823;DHT22;8528;49.976;11.858;2024-03-06T15:24:12;9.70;99.90
16823;DHT22;8528;49.976;11.858;2024-03-06T15:26:39;9.60;99.90
16823;DHT22;8528;49.976;11.858;2024-03-06T15:29:06;9.60;99.90
16823;DHT22;8528;49.976;11.858;2024-03-06T15:31:33;9.60;99.90
16823;DHT22;8528;49.976;11.858;2024-03-06T15:34:00;9.40;99.90
16823;DHT22;8528;49.976;11.858;2024-03-06T15:36:28;9.30;99.90
16823;DHT22;8528;49.976;11.858;2024-03-06T15:38:54;9.20;99.90
16823;DHT22;8528;49.976;11.858;2024-03-06T15:41:24;9.10;99.90
16823;DHT22;8528;49.976;11.858;2024-03-06T15:43:51;8.80;99.90
16823;DHT22;8528;49.976;11.858;2024-03-06T15:46:17;8.70;99.90
16823;DHT22;8528;49.976;11.858;2024-03-06T15:48:44;8.60;99.90
16823;DHT22;8528;49.976;11.858;2024-03-06T15:51:12;8.50;99.90
16823;DHT22;8528;49.976;11.858;2024-03-06T15:53:39;8.30;99.90
16823;DHT22;8528;49.976;11.858;2024-03-06T15:56:06;8.20;99.90
16823;DHT22;8528;49.976;11.858;2024-03-06T15:58:33;8.10;99.90
16823;DHT22;8528;49.976;11.858;2024-03-06T16:00:59;8.00;99.90
16823;DHT22;8528;49.976;11.858;2024-03-06T16:03:31;7.80;99.90
16823;DHT22;8528;49.976;11.858;2024-03-06T16:05:58;7.70;99.90
16823;DHT22;8528;49.976;11.858;2024-03-06T16:08:40;7.60;99.90
16823;DHT22;8528;49.976;11.858;2024-03-06T16:11:09;7.50;99.90
16823;DHT22;8528;49.976;11.858;2024-03-06T16:13:36;7.40;99.90